Time;durP1;ratioP1;P1;durP2;ratioP2;P2;SDS_P1;SDS_P2;PMS_P1;PMS_P2;Temp;Humidity;BMP_temperature;BMP_pressure;BME280_temperature;BME280_humidity;BME280_pressure;Samples;Min_cycle;Max_cycle;Signal;HPM_P1;HPM_P2
2022/12/04 06:15:43;;;;;;;33.20;29.85;;;;;;;9.02;64.19;103024.97;5030636;27;1708895;-53
2022/12/04 06:18:10;;;;;;;34.92;18.80;;;;;;;9.15;64.41;103029.59;5026886;27;102089;-52
2022/12/04 06:20:37;;;;;;;40.47;18.17;;;;;;;9.43;64.64;103043.03;5041180;27;103973;-53
2022/12/04 06:23:03;;;;;;;36.78;16.02;;;;;;;9.60;63.58;103040.75;5027440;27;102159;-52
2022/12/04 06:25:30;;;;;;;39.83;16.48;;;;;;;9.57;64.51;103047.44;5028803;27;102653;-52
2022/12/04 06:27:57;;;;;;;31.02;17.08;;;;;;;9.66;64.10;103047.22;5029871;27;102549;-52
2022/12/04 06:30:23;;;;;;;28.77;16.38;;;;;;;9.48;63.28;103045.13;5016941;27;103930;-52
2022/12/04 06:32:51;;;;;;;28.42;16.02;;;;;;;9.50;64.95;103048.47;5030403;27;104550;-52
2022/12/04 06:35:18;;;;;;;25.00;15.77;;;;;;;9.60;64.10;103048.91;5027371;27;102490;-54
2022/12/04 06:37:44;;;;;;;31.10;17.58;;;;;;;9.63;64.65;103056.66;5034178;27;102278;-52
2022/12/04 06:40:11;;;;;;;24.08;16.13;;;;;;;9.62;64.75;103047.63;5024997;27;103937;-52
2022/12/04 06:42:38;;;;;;;20.92;16.58;;;;;;;9.62;64.48;103044.91;5027848;27;102947;-52
2022/12/04 06:45:05;;;;;;;18.65;16.13;;;;;;;9.67;64.98;103044.31;5027699;27;102146;-52
2022/12/04 06:47:33;;;;;;;21.10;18.00;;;;;;;9.67;64.39;103052.47;5035072;27;102964;-52
2022/12/04 06:50:02;;;;;;;17.87;12.67;;;;;;;9.65;64.50;103053.72;5027023;27;104082;-52
2022/12/04 06:52:31;;;;;;;22.50;16.88;;;;;;;9.61;65.10;103053.28;5025329;27;103132;-52
2022/12/04 06:54:58;;;;;;;21.08;15.68;;;;;;;9.66;65.19;103056.22;5023647;27;105557;-52
2022/12/04 06:57:24;;;;;;;24.83;18.08;;;;;;;9.66;65.26;103048.06;5024814;27;103607;-52
2022/12/04 06:59:51;;;;;;;20.98;17.13;;;;;;;9.69;64.95;103053.09;5031577;27;104314;-53
2022/12/04 07:02:17;;;;;;;22.90;17.33;;;;;;;9.71;65.22;103056.44;5034028;27;102229;-52
2022/12/04 07:04:44;;;;;;;23.38;17.15;;;;;;;9.69;65.18;103047.66;5028918;27;102862;-52
2022/12/04 07:07:12;;;;;;;20.63;18.52;;;;;;;9.71;64.95;103048.28;5049663;27;102292;-52
2022/12/04 07:09:38;;;;;;;22.30;17.25;;;;;;;9.69;65.40;103044.94;5061322;27;103935;-52
2022/12/04 07:12:05;;;;;;;21.35;19.25;;;;;;;9.69;65.31;103042.19;5059442;27;102572;-52
2022/12/04 07:14:32;;;;;;;19.77;18.13;;;;;;;9.70;65.17;103038.47;5046828;27;102171;-52
2022/12/04 07:16:58;;;;;;;20.25;18.17;;;;;;;9.72;64.85;103049.94;5037381;27;102488;-52
2022/12/04 07:19:25;;;;;;;20.23;18.27;;;;;;;9.72;65.22;103043.69;5011923;28;104169;-52
2022/12/04 07:21:51;;;;;;;19.42;17.73;;;;;;;9.69;64.74;103047.66;5013096;27;103090;-52
2022/12/04 07:24:19;;;;;;;21.05;18.83;;;;;;;9.69;65.49;103042.19;5026955;27;102667;-52
2022/12/04 07:26:46;;;;;;;23.63;18.20;;;;;;;9.73;65.20;103054.34;5034247;28;102428;-52
2022/12/04 07:29:13;;;;;;;23.17;20.35;;;;;;;9.72;65.06;103052.66;5013277;28;103860;-52
2022/12/04 07:31:39;;;;;;;21.10;19.00;;;;;;;9.68;65.02;103056.84;5023982;27;102423;-52
2022/12/04 07:34:06;;;;;;;20.20;18.08;;;;;;;9.68;65.65;103043.25;5011745;27;103767;-52
2022/12/04 07:36:33;;;;;;;20.50;18.35;;;;;;;9.57;64.52;103054.75;5008267;28;102348;-52
2022/12/04 07:38:59;;;;;;;22.88;19.65;;;;;;;9.63;64.95;103053.94;5015930;28;103996;-52
2022/12/04 07:41:27;;;;;;;21.42;18.98;;;;;;;9.66;64.61;103069.81;5016807;28;102485;-52
2022/12/04 07:43:54;;;;;;;20.73;18.67;;;;;;;9.65;65.27;103068.13;5014702;28;102574;-52
2022/12/04 07:46:23;;;;;;;21.20;19.00;;;;;;;9.65;64.69;103068.13;5019293;28;102788;-52
2022/12/04 07:48:50;;;;;;;21.55;17.27;;;;;;;9.67;64.81;103070.66;5011344;27;103924;-52
2022/12/04 07:51:18;;;;;;;20.17;18.33;;;;;;;9.65;65.01;103076.31;5023493;28;102291;-52
2022/12/04 07:53:45;;;;;;;21.57;18.73;;;;;;;9.65;65.22;103073.56;5020212;28;102490;-52
2022/12/04 07:56:13;;;;;;;21.83;18.95;;;;;;;9.69;65.09;103069.41;5019925;28;102131;-52
2022/12/04 07:58:41;;;;;;;19.73;17.73;;;;;;;9.69;65.23;103063.97;5012423;28;103844;-53
2022/12/04 08:01:10;;;;;;;21.33;19.08;;;;;;;9.67;65.16;103070.66;5012937;28;102067;-52
2022/12/04 08:34:14;;;;;;;64.07;59.75;;;;;;;9.67;65.24;103074.22;5037272;27;102776;-52
2022/12/04 08:36:41;;;;;;;33.25;30.42;;;;;;;9.62;65.17;103072.09;5002020;28;102470;-52
2022/12/04 08:39:09;;;;;;;27.77;25.50;;;;;;;9.64;65.23;103066.47;5000907;28;103835;-52
2022/12/04 08:41:35;;;;;;;24.38;22.30;;;;;;;9.64;65.10;103071.91;4999507;28;103032;-52
2022/12/04 08:44:02;;;;;;;24.02;22.00;;;;;;;9.67;65.38;103062.50;4994059;28;102349;-52
2022/12/04 08:46:29;;;;;;;24.13;21.98;;;;;;;9.70;65.07;103064.78;4972132;28;102769;-51
2022/12/04 08:48:56;;;;;;;24.55;19.95;;;;;;;9.69;65.12;103069.41;4972003;28;103936;-53
2022/12/04 08:51:27;;;;;;;22.13;20.00;;;;;;;9.70;64.75;103065.66;4973505;28;103301;-52
2022/12/04 08:53:56;;;;;;;19.30;17.77;;;;;;;9.67;64.94;103066.06;4970367;28;102657;-52
2022/12/04 08:56:23;;;;;;;22.58;20.65;;;;;;;9.69;65.43;103063.13;4971638;28;103064;-52
2022/12/04 08:58:50;;;;;;;22.65;20.92;;;;;;;9.69;65.29;103069.41;4968203;28;104249;-52
2022/12/04 09:01:17;;;;;;;21.52;19.58;;;;;;;9.69;65.29;103066.69;4973484;28;102222;-52
2022/12/04 09:03:43;;;;;;;22.25;20.35;;;;;;;9.69;64.91;103068.56;4969664;28;102838;-52
2022/12/04 09:06:12;;;;;;;23.17;21.42;;;;;;;9.71;64.70;103059.16;4973717;28;102399;-52
2022/12/04 09:08:41;;;;;;;21.00;19.23;;;;;;;9.70;65.45;103060.22;4972798;28;103947;-52
2022/12/04 09:11:10;;;;;;;21.60;19.90;;;;;;;9.67;65.29;103062.50;4973141;28;102629;-52
2022/12/04 09:13:37;;;;;;;16.70;15.40;;;;;;;9.68;65.20;103067.72;4972827;28;102024;-52
2022/12/04 09:16:06;;;;;;;21.30;19.48;;;;;;;9.69;65.44;103053.09;4979511;28;102908;-52
2022/12/04 09:18:33;;;;;;;21.70;19.73;;;;;;;9.69;64.99;103060.41;4993416;28;103994;-52
2022/12/04 09:21:02;;;;;;;18.88;17.45;;;;;;;9.68;65.03;103059.56;5004165;27;102057;-52
2022/12/04 09:23:29;;;;;;;19.70;18.13;;;;;;;9.68;65.01;103062.28;5002867;28;102368;-52
2022/12/04 09:25:57;;;;;;;19.13;17.58;;;;;;;9.68;65.21;103062.28;4999622;28;102286;-52
2022/12/04 09:28:23;;;;;;;18.13;16.60;;;;;;;9.69;65.39;103066.69;5002930;28;104036;-52
2022/12/04 09:30:58;;;;;;;20.95;19.35;;;;;;;9.70;64.87;103065.66;5006711;28;102157;-52
2022/12/04 09:33:25;;;;;;;18.15;16.75;;;;;;;9.69;64.75;103053.09;5019370;27;102488;-52
2022/12/04 09:35:52;;;;;;;20.60;18.90;;;;;;;9.70;65.05;103049.34;5009258;28;102489;-53
2022/12/04 09:38:18;;;;;;;21.08;19.33;;;;;;;9.71;65.33;103056.44;5003773;28;104020;-52
2022/12/04 09:40:51;;;;;;;20.77;19.17;;;;;;;9.72;64.77;103058.09;5011055;27;102259;-52
2022/12/04 09:43:28;;;;;;;20.58;19.13;;;;;;;9.69;64.87;103047.66;5008789;28;102233;-52
2022/12/04 09:46:01;;;;;;;20.38;18.77;;;;;;;9.68;64.98;103045.97;5014134;28;102916;-52
2022/12/04 09:48:34;;;;;;;19.85;18.35;;;;;;;9.68;65.02;103040.53;4998828;28;103938;-52
2022/12/04 09:51:03;;;;;;;17.15;15.98;;;;;;;9.67;65.69;103038.03;5006407;28;102338;-52
2022/12/04 09:53:42;;;;;;;20.40;18.70;;;;;;;9.70;65.65;103043.03;5004887;28;102272;-52
2022/12/04 09:56:12;;;;;;;19.98;18.63;;;;;;;9.67;65.02;103044.31;5010177;28;102168;-52
2022/12/04 09:58:46;;;;;;;18.92;17.45;;;;;;;9.69;65.20;103042.19;5009763;28;103977;-52
2022/12/04 10:01:20;;;;;;;19.92;18.27;;;;;;;9.66;65.50;103042.63;5025340;27;102484;-52
2022/12/04 10:03:47;;;;;;;20.15;18.70;;;;;;;9.62;64.21;103035.94;5021350;27;102327;-52
2022/12/04 10:06:19;;;;;;;19.48;17.88;;;;;;;9.60;65.04;103038.03;5028174;27;102328;-52
2022/12/04 10:08:53;;;;;;;19.80;18.27;;;;;;;9.57;64.25;103039.28;5029308;27;104025;-52
2022/12/04 10:11:26;;;;;;;19.38;18.02;;;;;;;9.60;64.74;103029.88;5026329;27;102575;-52
2022/12/04 10:14:11;;;;;;;19.35;17.98;;;;;;;9.59;65.30;103037.19;5030725;27;102031;-52
2022/12/04 10:17:05;;;;;;;17.25;16.02;;;;;;;9.57;65.04;103031.13;5034523;27;102596;-53
2022/12/04 10:19:41;;;;;;;19.25;17.80;;;;;;;9.62;65.27;103031.31;5020141;27;104136;-52
2022/12/04 10:22:13;;;;;;;17.38;15.98;;;;;;;9.63;65.35;103021.31;5022957;27;102503;-52
2022/12/04 10:24:46;;;;;;;20.35;18.85;;;;;;;9.64;64.74;103017.53;5020495;27;102284;-52
2022/12/04 10:27:20;;;;;;;18.88;17.55;;;;;;;9.66;65.02;103018.16;5024578;27;101993;-52
2022/12/04 10:29:53;;;;;;;20.17;18.58;;;;;;;9.69;65.24;103015.00;5015434;27;104021;-52
2022/12/04 10:32:21;;;;;;;18.52;17.15;;;;;;;9.68;64.75;103018.78;5019068;27;102503;-52
2022/12/04 10:34:51;;;;;;;20.33;18.92;;;;;;;9.70;65.11;103004.97;5018931;27;102826;-52
2022/12/04 10:37:18;;;;;;;20.58;18.98;;;;;;;9.70;64.53;103015.84;5019214;27;102231;-52
2022/12/04 10:39:50;;;;;;;20.70;19.15;;;;;;;9.70;64.98;103021.28;5016248;27;104145;-52
2022/12/04 10:42:26;;;;;;;20.33;18.88;;;;;;;9.70;65.22;103021.28;5016532;27;102839;-52
2022/12/04 10:44:55;;;;;;;18.90;17.55;;;;;;;9.70;64.82;103022.16;5019215;27;102687;-52
2022/12/04 10:47:23;;;;;;;19.48;18.05;;;;;;;9.71;64.50;103017.53;5021119;27;102861;-52
2022/12/04 10:49:57;;;;;;;20.08;18.70;;;;;;;9.72;64.72;103020.03;5020782;27;103912;-52
2022/12/04 10:52:24;;;;;;;21.05;19.48;;;;;;;9.71;64.52;103003.94;5021099;27;102023;-52
2022/12/04 10:54:55;;;;;;;20.30;18.70;;;;;;;9.73;64.99;103016.25;5020485;27;102097;-52
2022/12/04 10:57:21;;;;;;;18.30;17.13;;;;;;;9.74;65.07;103017.13;5024473;27;104850;-52
2022/12/04 10:59:49;;;;;;;19.05;17.67;;;;;;;9.72;64.63;103020.03;5019546;27;104298;-52
2022/12/04 11:02:21;;;;;;;21.33;20.02;;;;;;;9.72;64.78;103009.16;5017945;27;102230;-52
2022/12/04 11:04:54;;;;;;;20.40;19.05;;;;;;;9.73;65.34;103013.53;5021195;27;102388;-52
2022/12/04 11:07:24;;;;;;;20.20;18.85;;;;;;;9.72;64.59;103006.44;5022529;27;102540;-52
2022/12/04 11:09:56;;;;;;;19.58;18.25;;;;;;;9.71;65.23;103003.94;5018405;27;104419;-52
2022/12/04 11:12:23;;;;;;;21.52;20.05;;;;;;;9.70;64.76;103008.56;5017805;27;102827;-52
2022/12/04 11:14:59;;;;;;;21.38;19.85;;;;;;;9.73;65.32;103016.25;5020544;27;102544;-52
2022/12/04 11:17:27;;;;;;;22.40;20.98;;;;;;;9.71;64.82;103017.53;5018372;27;102665;-52
2022/12/04 11:20:03;;;;;;;22.95;21.45;;;;;;;9.69;64.77;103020.44;5018592;27;104244;-52
2022/12/04 11:22:31;;;;;;;22.92;21.25;;;;;;;9.72;64.97;103020.03;5017437;27;102177;-52
2022/12/04 11:24:58;;;;;;;19.67;18.30;;;;;;;9.72;64.52;103022.75;5015859;27;102692;-52
2022/12/04 11:27:30;;;;;;;20.90;19.35;;;;;;;9.74;65.02;103025.28;5020481;27;102410;-52
2022/12/04 11:30:00;;;;;;;20.48;19.13;;;;;;;9.75;64.60;103016.91;5016477;27;103894;-52
2022/12/04 11:32:32;;;;;;;21.23;19.63;;;;;;;9.74;64.93;103012.53;5017201;27;102780;-52
2022/12/04 11:35:04;;;;;;;20.15;18.60;;;;;;;9.75;65.11;103007.91;5015601;27;103054;-52
2022/12/04 11:37:32;;;;;;;21.25;19.88;;;;;;;9.74;64.72;103007.09;5017913;27;102843;-52
2022/12/04 11:40:02;;;;;;;19.40;17.90;;;;;;;9.75;64.95;103002.47;5014149;27;103992;-52
2022/12/04 11:42:30;;;;;;;20.58;19.15;;;;;;;9.75;65.11;103003.31;5011825;27;102355;-52
2022/12/04 11:45:02;;;;;;;18.27;16.90;;;;;;;9.74;65.07;103007.09;5014211;27;102471;-52
2022/12/04 11:47:32;;;;;;;20.35;18.83;;;;;;;9.74;64.96;103007.09;5014494;27;102987;-52
2022/12/04 11:50:16;;;;;;;17.83;16.35;;;;;;;9.71;64.67;102996.63;5012110;27;104083;-53
2022/12/04 11:52:58;;;;;;;19.75;18.33;;;;;;;9.73;64.80;102993.69;5014656;27;102240;-52
2022/12/04 11:55:31;;;;;;;20.45;18.98;;;;;;;9.74;64.59;102993.50;5025834;27;102828;-52
2022/12/04 11:58:15;;;;;;;19.13;17.83;;;;;;;9.74;65.07;102996.22;5016566;27;102363;-52
2022/12/04 12:00:54;;;;;;;18.10;16.92;;;;;;;9.73;64.73;102994.50;5022157;27;104389;-52
2022/12/04 12:03:26;;;;;;;20.00;18.63;;;;;;;9.75;64.84;102983.44;5024293;27;102113;-52
2022/12/04 12:06:14;;;;;;;20.17;18.83;;;;;;;9.74;65.11;102979.88;5023289;27;102362;-52
2022/12/04 12:09:00;;;;;;;20.00;18.55;;;;;;;9.74;64.72;102979.88;5028767;27;102456;-53
2022/12/04 12:11:32;;;;;;;17.95;16.77;;;;;;;9.73;64.73;102983.63;5021045;27;104418;-52
2022/12/04 12:14:08;;;;;;;18.55;17.13;;;;;;;9.74;64.54;102979.88;5019902;27;102305;-52
2022/12/04 12:17:02;;;;;;;17.95;16.77;;;;;;;9.74;65.03;102976.34;5035990;27;104196;-52
2022/12/04 12:19:45;;;;;;;18.98;17.45;;;;;;;9.74;64.47;102973.63;5023605;27;102526;-52
2022/12/04 16:15:35;;;;;;;30.42;28.70;;;;;;;9.45;64.40;103002.91;5048520;27;1409165;-52
2022/12/04 16:18:04;;;;;;;16.88;15.63;;;;;;;9.44;64.65;103000.38;5035419;27;102126;-52
2022/12/04 16:20:33;;;;;;;18.13;16.83;;;;;;;9.43;64.29;102998.72;5033393;27;104514;-51
2022/12/04 16:22:59;;;;;;;14.20;13.02;;;;;;;9.29;64.09;102998.69;5036124;27;102896;-51
2022/12/04 16:25:29;;;;;;;14.63;13.38;;;;;;;9.35;64.69;102984.28;5038273;27;103016;-51
2022/12/04 16:27:56;;;;;;;19.58;14.82;;;;;;;9.42;64.61;102986.16;5056666;27;102234;-51
2022/12/04 16:30:22;;;;;;;15.90;13.23;;;;;;;9.45;64.97;102983.00;5056630;27;104153;-51
2022/12/04 16:32:51;;;;;;;15.90;13.63;;;;;;;9.45;65.14;102986.59;5056633;27;102733;-51
2022/12/04 16:35:18;;;;;;;12.77;11.63;;;;;;;9.45;64.22;102985.72;5056090;27;102472;-51
2022/12/04 16:37:45;;;;;;;13.45;12.40;;;;;;;9.43;64.29;102985.13;5060295;27;102223;-51
2022/12/04 16:40:13;;;;;;;13.48;12.40;;;;;;;9.46;64.55;102982.00;5054831;27;104108;-51
2022/12/04 16:42:40;;;;;;;14.80;13.52;;;;;;;9.44;64.95;102979.47;5060683;27;103482;-52
2022/12/04 16:45:19;;;;;;;14.43;13.25;;;;;;;9.44;63.97;102989.50;5057623;27;102550;-51
2022/12/04 16:47:46;;;;;;;14.02;12.82;;;;;;;9.44;64.38;102989.50;5054720;27;104938;-51
2022/12/04 16:50:14;;;;;;;14.07;12.77;;;;;;;9.45;64.33;102992.03;5055761;27;103873;-51
2022/12/04 16:52:41;;;;;;;16.10;14.80;;;;;;;9.46;64.60;102990.97;5052009;27;102749;-52
2022/12/04 16:55:16;;;;;;;14.98;13.77;;;;;;;9.46;64.42;102993.69;5059187;27;104695;-51
2022/12/04 16:57:43;;;;;;;15.13;13.98;;;;;;;9.47;64.61;102994.53;5059846;27;102894;-51
2022/12/04 17:00:12;;;;;;;14.85;13.55;;;;;;;9.49;64.71;102995.16;5054063;27;103760;-51
2022/12/04 17:02:38;;;;;;;15.20;13.95;;;;;;;9.50;64.60;102994.09;5055021;27;101914;-52
2022/12/04 17:05:06;;;;;;;16.83;15.55;;;;;;;9.49;64.68;102990.56;5039428;27;102323;-51
2022/12/04 17:07:34;;;;;;;16.40;15.02;;;;;;;9.52;64.43;102997.44;5019608;27;102545;-51
2022/12/04 17:10:00;;;;;;;15.88;14.68;;;;;;;9.51;64.65;102995.78;5012271;28;104015;-52
2022/12/04 17:12:27;;;;;;;17.00;15.77;;;;;;;9.49;64.82;103003.31;5010047;27;102444;-51
2022/12/04 17:14:54;;;;;;;15.27;14.18;;;;;;;9.49;65.16;103009.59;4997399;27;102305;-51
2022/12/04 17:17:20;;;;;;;14.57;13.48;;;;;;;9.49;64.41;103008.75;4994732;28;102905;-51
2022/12/04 17:19:47;;;;;;;15.63;14.45;;;;;;;9.49;65.05;103006.03;4993805;28;103867;-52
2022/12/04 17:22:15;;;;;;;17.48;16.17;;;;;;;9.52;64.43;103016.47;5003412;28;102971;-52
2022/12/04 17:24:42;;;;;;;16.73;15.43;;;;;;;9.52;64.48;103003.75;4997720;28;102507;-52
2022/12/04 17:27:13;;;;;;;16.95;15.82;;;;;;;9.54;64.11;103006.25;4996849;28;102624;-52
2022/12/04 17:29:39;;;;;;;17.45;16.25;;;;;;;9.53;64.25;102999.97;4991842;28;103909;-52
2022/12/04 17:32:06;;;;;;;16.20;14.95;;;;;;;9.50;64.79;102999.53;5004267;28;102241;-52
2022/12/04 17:34:32;;;;;;;15.57;14.50;;;;;;;9.52;64.93;103011.03;4997788;28;102346;-52
2022/12/04 17:36:59;;;;;;;17.50;16.35;;;;;;;9.51;64.58;102999.31;4996789;28;102164;-51
2022/12/04 17:39:25;;;;;;;16.40;15.32;;;;;;;9.57;64.99;103013.97;4997640;28;103952;-51
2022/12/04 17:41:55;;;;;;;16.90;15.60;;;;;;;9.54;64.57;103006.25;5004208;28;102750;-52
2022/12/04 17:44:21;;;;;;;18.00;16.52;;;;;;;9.51;64.36;103003.94;4995402;28;102379;-52
2022/12/04 17:46:48;;;;;;;16.45;15.35;;;;;;;9.51;64.36;103002.03;4996574;28;102356;-52
2022/12/04 17:49:14;;;;;;;17.73;16.15;;;;;;;9.53;64.63;103004.56;4995946;28;104085;-52
2022/12/04 17:51:43;;;;;;;18.42;17.00;;;;;;;9.52;64.73;102997.44;5005989;28;102510;-52
2022/12/04 17:54:11;;;;;;;18.88;17.75;;;;;;;9.54;64.63;103000.78;4996884;28;102873;-51
2022/12/04 17:56:37;;;;;;;16.60;15.20;;;;;;;9.54;65.04;103000.78;4998509;28;102396;-51
2022/12/04 17:59:05;;;;;;;18.88;17.48;;;;;;;9.55;64.56;102995.13;5005080;28;104234;-51
2022/12/04 18:01:32;;;;;;;17.10;15.60;;;;;;;9.55;65.05;102989.69;4992800;28;105221;-52
2022/12/04 18:04:02;;;;;;;18.65;17.35;;;;;;;9.55;65.03;103002.47;4993860;28;102260;-51
2022/12/04 18:06:29;;;;;;;;;;;;;;;9.55;64.75;102997.03;4999619;28;102363;-51
2022/12/04 18:08:56;;;;;;;15.00;13.93;;;;;;;9.54;64.65;102989.94;4996203;27;103915;-52
2022/12/04 18:11:26;;;;;;;16.08;14.88;;;;;;;9.55;64.89;102994.31;4998986;28;102248;-52
2022/12/04 18:13:55;;;;;;;17.88;16.63;;;;;;;9.55;64.90;102991.59;5000145;28;102354;-52
2022/12/04 18:16:23;;;;;;;16.25;14.85;;;;;;;9.54;64.84;102993.47;5005683;28;102097;-52
2022/12/04 18:18:52;;;;;;;15.40;14.40;;;;;;;9.54;64.91;103001.63;4989432;28;104027;-52
2022/12/04 18:21:18;;;;;;;16.15;15.07;;;;;;;9.50;65.25;102994.94;4993945;28;102684;-52
2022/12/04 18:23:46;;;;;;;17.23;16.08;;;;;;;9.51;64.55;102995.78;4992905;28;102893;-52
2022/12/04 18:26:15;;;;;;;16.75;15.50;;;;;;;9.52;64.76;102992.00;4997249;28;102748;-51
2022/12/04 18:28:42;;;;;;;15.48;14.45;;;;;;;9.52;64.34;102994.72;5005318;28;103851;-52
2022/12/04 18:31:09;;;;;;;17.17;15.98;;;;;;;9.50;65.00;102994.94;5001962;28;102444;-52
2022/12/04 18:33:39;;;;;;;16.48;15.38;;;;;;;9.51;64.62;102996.59;5001687;28;102324;-52
2022/12/04 18:36:12;;;;;;;16.88;15.57;;;;;;;9.51;64.65;102996.59;5000285;28;103045;-51
2022/12/04 18:38:39;;;;;;;16.35;15.15;;;;;;;9.52;64.60;102997.44;5001847;28;104609;-51
2022/12/04 18:41:07;;;;;;;16.13;15.02;;;;;;;9.49;64.54;103017.75;4996327;28;102672;-52
2022/12/04 18:43:34;;;;;;;16.55;15.35;;;;;;;9.43;63.75;103004.97;4991116;28;102404;-52
2022/12/04 20:41:37;;;;;;;39.17;36.80;;;;;;;9.49;64.06;103000.59;4998057;28;105403;-53
2022/12/04 20:44:05;;;;;;;20.90;18.77;;;;;;;9.50;64.08;102994.94;4987733;28;104651;-52
2022/12/04 20:46:36;;;;;;;18.63;17.13;;;;;;;9.50;64.39;102994.09;4989581;28;104119;-52
2022/12/04 20:49:07;;;;;;;15.13;13.70;;;;;;;9.50;64.28;102997.66;4995701;28;102517;-52
2022/12/04 20:51:37;;;;;;;15.35;14.05;;;;;;;9.51;64.26;102991.16;4990962;28;102234;-52
2022/12/04 20:54:05;;;;;;;15.20;13.93;;;;;;;9.51;64.33;103001.22;4969190;28;102276;-52
2022/12/04 20:56:33;;;;;;;16.02;14.73;;;;;;;9.51;64.42;102990.34;4970708;28;103713;-52
2022/12/04 20:59:03;;;;;;;15.03;13.93;;;;;;;9.53;63.89;102994.53;4970551;28;102309;-52
2022/12/04 21:01:31;;;;;;;15.10;14.02;;;;;;;9.50;63.77;102994.94;4964524;28;102865;-52
2022/12/04 21:03:59;;;;;;;16.20;15.13;;;;;;;9.52;63.87;103002.88;4971479;28;102277;-52
2022/12/04 21:06:28;;;;;;;15.48;14.27;;;;;;;9.50;64.03;102991.41;4966278;28;103885;-52
2022/12/04 21:08:56;;;;;;;14.50;13.30;;;;;;;9.49;64.01;102987.00;4968994;28;102570;-52
2022/12/04 21:11:25;;;;;;;16.55;15.13;;;;;;;9.51;64.24;102987.63;4971539;28;102463;-52
2022/12/04 21:16:41;;;;;;;15.55;14.38;;;;;;;9.50;64.23;102983.25;4971125;28;103877;-52
2022/12/04 21:19:10;;;;;;;15.40;14.30;;;;;;;9.50;64.44;102975.91;4968682;28;102702;-52
2022/12/04 21:21:37;;;;;;;16.42;15.23;;;;;;;9.51;63.93;102979.47;4967562;28;102074;-52
2022/12/04 21:24:05;;;;;;;16.25;14.93;;;;;;;9.49;64.04;102987.00;4977024;28;104884;-52
2022/12/04 21:26:32;;;;;;;15.27;13.93;;;;;;;9.50;64.05;102977.81;4979799;28;104044;-53
2022/12/04 21:29:00;;;;;;;16.45;15.05;;;;;;;9.51;64.18;102983.00;4980603;28;103502;-52
2022/12/04 21:31:27;;;;;;;16.77;15.25;;;;;;;9.50;64.26;102988.69;4984851;28;102724;-53
2022/12/04 21:33:56;;;;;;;15.55;14.23;;;;;;;9.49;64.14;102976.97;4984763;28;102124;-52
2022/12/04 21:36:24;;;;;;;17.40;15.77;;;;;;;9.49;64.02;102976.97;4984438;28;104223;-52
2022/12/04 21:38:50;;;;;;;16.48;15.10;;;;;;;9.50;64.18;102972.38;4984658;28;102610;-52
2022/12/04 21:44:04;;;;;;;16.65;15.40;;;;;;;9.46;64.36;102962.97;4969909;28;102511;-52
2022/12/04 21:46:31;;;;;;;17.30;15.90;;;;;;;9.47;64.58;102961.91;4967117;28;103858;-52
2022/12/04 21:48:59;;;;;;;15.65;14.35;;;;;;;9.49;63.92;102967.97;4966806;28;102652;-52
2022/12/04 21:51:26;;;;;;;17.05;15.68;;;;;;;9.49;64.42;102966.09;4967783;28;102521;-52
2022/12/04 21:53:53;;;;;;;16.52;15.20;;;;;;;9.50;64.40;102961.50;4972747;28;102539;-53
2022/12/04 21:56:20;;;;;;;17.55;16.42;;;;;;;9.49;64.02;102966.09;4969835;28;106599;-52
2022/12/04 21:58:46;;;;;;;17.80;16.30;;;;;;;9.48;64.44;102964.41;4972188;28;102232;-52
2022/12/04 22:01:14;;;;;;;17.27;15.93;;;;;;;9.49;64.14;102954.41;4966993;28;102526;-52
2022/12/04 22:03:40;;;;;;;16.23;14.88;;;;;;;9.48;64.65;102958.13;4966990;28;102670;-52
2022/12/04 22:06:08;;;;;;;17.05;15.93;;;;;;;9.46;63.92;102949.38;4972269;28;103995;-53
2022/12/04 22:08:37;;;;;;;;;;;;;;;9.46;64.40;102955.63;4972632;28;103631;-52
2022/12/04 22:11:04;;;;;;;13.57;12.38;;;;;;;9.46;64.52;102950.19;4969553;28;103950;-52
2022/12/04 22:13:32;;;;;;;15.77;14.50;;;;;;;9.46;64.08;102952.91;4969646;28;102399;-52
2022/12/04 22:16:01;;;;;;;15.93;14.52;;;;;;;9.48;64.78;102955.41;4974330;28;104184;-52
2022/12/04 22:18:27;;;;;;;15.93;14.57;;;;;;;9.46;64.38;102947.47;4970819;28;102195;-52
2022/12/04 22:20:54;;;;;;;17.77;16.48;;;;;;;9.47;64.43;102942.88;4979743;28;104581;-52
2022/12/04 22:23:22;;;;;;;17.00;15.57;;;;;;;9.46;64.29;102946.66;4978969;28;102107;-52
2022/12/04 22:25:48;;;;;;;16.55;15.32;;;;;;;9.48;64.04;102947.25;4976359;28;104030;-52
2022/12/04 22:28:15;;;;;;;17.83;16.42;;;;;;;9.48;64.18;102955.41;4972694;28;102509;-52
2022/12/04 22:30:41;;;;;;;17.40;16.02;;;;;;;9.49;64.17;102959.84;4971935;28;104736;-52
2022/12/04 22:33:08;;;;;;;16.95;15.65;;;;;;;9.49;64.60;102952.50;4968330;28;102231;-52
2022/12/04 22:35:34;;;;;;;18.30;16.98;;;;;;;9.50;63.99;102956.06;4973453;28;103919;-52
2022/12/04 22:38:01;;;;;;;20.50;18.90;;;;;;;9.48;64.62;102958.13;4973175;28;102157;-52
2022/12/04 22:40:29;;;;;;;16.60;15.48;;;;;;;9.49;64.44;102954.41;4968595;28;102504;-52
2022/12/04 22:42:55;;;;;;;17.00;15.77;;;;;;;9.50;64.16;102956.06;4972653;28;102178;-52
2022/12/04 22:45:22;;;;;;;17.42;15.85;;;;;;;9.50;64.57;102956.06;4969983;28;103910;-52
2022/12/04 22:47:48;;;;;;;16.55;15.35;;;;;;;9.48;64.54;102949.97;4971700;28;102572;-52
2022/12/04 22:50:15;;;;;;;17.25;16.02;;;;;;;9.46;64.07;102947.47;4974697;28;102245;-52
2022/12/04 22:52:43;;;;;;;18.63;17.38;;;;;;;9.49;64.41;102959.84;4972387;28;102280;-52
2022/12/04 22:55:10;;;;;;;17.98;16.58;;;;;;;9.49;64.45;102959.84;4963110;28;103940;-52
2022/12/04 22:57:38;;;;;;;19.00;17.52;;;;;;;9.46;64.74;102950.19;4975377;28;101899;-52
2022/12/04 23:00:08;;;;;;;16.87;15.77;;;;;;;9.46;63.94;102949.38;4973884;28;102384;-52
2022/12/04 23:02:34;;;;;;;;;;;;;;;9.44;64.31;102951.44;4974752;28;102257;-52
2022/12/04 23:05:01;;;;;;;14.00;12.88;;;;;;;9.45;64.25;102944.97;4974655;28;103887;-52
2022/12/04 23:07:27;;;;;;;16.42;14.90;;;;;;;9.44;64.37;102941.41;4975049;28;102156;-52
2022/12/04 23:09:53;;;;;;;16.00;14.90;;;;;;;9.44;63.89;102951.44;4974909;28;102275;-52
2022/12/04 23:12:24;;;;;;;17.33;16.13;;;;;;;9.41;64.45;102958.13;4974553;28;102500;-52
2022/12/04 23:14:51;;;;;;;17.05;15.82;;;;;;;9.42;64.15;102953.56;4973233;28;104022;-52
2022/12/04 23:17:19;;;;;;;18.23;16.98;;;;;;;9.39;63.95;102950.19;4967208;28;102374;-52
2022/12/04 23:19:45;;;;;;;17.65;16.15;;;;;;;9.42;64.01;102951.66;4975441;28;102230;-53
2022/12/04 23:22:12;;;;;;;17.33;16.10;;;;;;;9.43;64.27;102944.34;4966330;28;102238;-53
2022/12/04 23:24:40;;;;;;;16.88;15.75;;;;;;;9.44;63.77;102940.56;4966620;28;103865;-52
2022/12/04 23:27:06;;;;;;;16.77;15.50;;;;;;;9.37;64.45;102944.13;4964951;28;102353;-52
2022/12/04 23:29:33;;;;;;;19.58;18.02;;;;;;;9.38;64.48;102943.09;4974863;28;102219;-52
2022/12/04 23:32:01;;;;;;;20.40;18.92;;;;;;;9.41;64.20;102938.28;4977762;28;102222;-52
2022/12/04 23:34:27;;;;;;;18.83;17.35;;;;;;;9.39;64.34;102944.75;4972963;28;104060;-52
2022/12/04 23:36:53;;;;;;;17.05;15.88;;;;;;;9.39;64.36;102944.75;4974106;28;102406;-52
2022/12/04 23:39:20;;;;;;;18.83;17.38;;;;;;;9.41;64.29;102946.44;4973569;28;102248;-52
2022/12/04 23:41:46;;;;;;;16.58;15.23;;;;;;;9.38;64.45;102945.00;4971217;28;102366;-52
2022/12/04 23:44:13;;;;;;;17.60;16.20;;;;;;;9.35;64.37;102942.69;4978365;28;103937;-52
2022/12/04 23:46:40;;;;;;;17.70;16.52;;;;;;;9.36;64.06;102944.34;4976336;28;102659;-52
2022/12/04 23:49:07;;;;;;;16.95;15.65;;;;;;;9.35;64.46;102938.06;4972741;28;102642;-53
2022/12/04 23:51:34;;;;;;;18.40;17.00;;;;;;;9.33;64.75;102942.88;4984373;28;102567;-52
2022/12/04 23:54:01;;;;;;;18.75;17.05;;;;;;;9.37;64.21;102935.13;4980574;28;103967;-52
2022/12/04 23:56:28;;;;;;;17.88;16.65;;;;;;;9.33;64.01;102934.72;4976308;28;102203;-52